| time (UTC) | temp F | wind direction | speed MPH | gust MPH | rain 1hr in | rain 24hr in | rain mn in | humidity % | barometer mb |
| 20260507151601 | 71 | 360 | 6.0 | 14.0 | 0.00 | 0.00 | 0.00 | 100 | 1009.6 |
| 20260507150059 | 76 | 174 | 5.0 | 12.0 | 0.00 | 0.00 | 0.00 | 99 | 1008.9 |
| 20260507144558 | 77 | 142 | 6.0 | 14.0 | 0.00 | 0.00 | 0.00 | 98 | 1008.5 |
| 20260507143113 | 78 | 144 | 4.0 | 18.0 | 0.00 | 0.00 | 0.00 | 98 | 1008.4 |
| 20260507141621 | 79 | 157 | 5.0 | 16.0 | 0.00 | 0.00 | 0.00 | 98 | 1008.2 |
| 20260507140111 | 78 | 148 | 10.0 | 16.0 | 0.00 | 0.00 | 0.00 | 97 | 1008.1 |
| 20260507134600 | 78 | 111 | 10.0 | 16.0 | 0.00 | 0.00 | 0.00 | 98 | 1007.9 |
| 20260507133100 | 79 | 126 | 10.0 | 16.0 | 0.00 | 0.00 | 0.00 | 98 | 1008.0 |
| 20260507131617 | 79 | 123 | 9.0 | 17.0 | 0.00 | 0.00 | 0.00 | 99 | 1008.0 |
| 20260507130053 | 79 | 86 | 7.0 | 17.0 | 0.00 | 0.00 | 0.00 | 99 | 1008.2 |
| 20260507124559 | 79 | 153 | 10.0 | 19.0 | 0.00 | 0.00 | 0.00 | 99 | 1008.3 |
| 20260507123054 | 79 | 140 | 8.0 | 20.0 | 0.00 | 0.00 | 0.00 | 99 | 1008.5 |
| 20260507121547 | 80 | 167 | 6.0 | 14.0 | 0.00 | 0.00 | 0.00 | 100 | 1008.6 |
| 20260507120045 | 79 | 148 | 6.0 | 13.0 | 0.00 | 0.00 | 0.00 | 100 | 1008.8 |
| 20260507114543 | 79 | 163 | 6.0 | 15.0 | 0.00 | 0.00 | 0.00 | 99 | 1009.0 |
| 20260507113103 | 78 | 146 | 6.0 | 15.0 | 0.00 | 0.00 | 0.00 | 100 | 1009.2 |
| 20260507111537 | 77 | 143 | 6.0 | 13.0 | 0.00 | 0.00 | 0.00 | 100 | 1009.3 |
| 20260507110039 | 78 | 150 | 6.0 | 11.0 | 0.00 | 0.00 | 0.00 | 100 | 1009.3 |
| 20260507104533 | 78 | 126 | 7.0 | 11.0 | 0.00 | 0.00 | 0.00 | 100 | 1009.4 |
| 20260507103032 | 77 | 196 | 7.0 | 14.0 | 0.00 | 0.00 | 0.00 | 100 | 1009.5 |
| 20260507101529 | 76 | 88 | 7.0 | 13.0 | 0.00 | 0.00 | 0.00 | 100 | 1009.6 |
| 20260507100041 | 76 | 125 | 6.0 | 13.0 | 0.00 | 0.00 | 0.00 | 100 | 1009.7 |
| 20260507094522 | 75 | 140 | 5.0 | 10.0 | 0.00 | 0.00 | 0.00 | 100 | 1009.9 |
| 20260507093018 | 74 | 132 | 5.0 | 14.0 | 0.00 | 0.00 | 0.00 | 100 | 1010.1 |
| 20260507091516 | 73 | 177 | 6.0 | 12.0 | 0.00 | 0.00 | 0.00 | 100 | 1010.1 |
| 20260507090012 | 72 | 124 | 5.0 | 9.0 | 0.00 | 0.00 | 0.00 | 100 | 1010.2 |
| 20260507084525 | 72 | 137 | 4.0 | 11.0 | 0.00 | 0.00 | 0.00 | 100 | 1010.2 |
| 20260507083017 | 70 | 136 | 5.0 | 9.0 | 0.00 | 0.00 | 0.00 | 100 | 1010.4 |
| 20260507081504 | 70 | 136 | 4.0 | 9.0 | 0.00 | 0.00 | 0.00 | 100 | 1010.4 |
| 20260507080004 | 70 | 139 | 5.0 | 11.0 | 0.00 | 0.00 | 0.00 | 100 | 1010.4 |
| 20260507074503 | 70 | 172 | 4.0 | 9.0 | 0.00 | 0.00 | 0.00 | 100 | 1010.4 |
| 20260507073109 | 69 | 125 | 6.0 | 13.0 | 0.00 | 0.00 | 0.00 | 100 | 1010.3 |
| 20260507071554 | 68 | 112 | 6.0 | 11.0 | 0.00 | 0.00 | 0.00 | 100 | 1010.3 |
| 20260507070104 | 67 | 140 | 5.0 | 12.0 | 0.00 | 0.00 | 0.00 | 100 | 1010.4 |
| 20260507064550 | 66 | 132 | 5.0 | 9.0 | 0.00 | 0.00 | 0.00 | 100 | 1010.3 |
| 20260507063052 | 64 | 115 | 5.0 | 11.0 | 0.00 | 0.00 | 0.00 | 100 | 1010.4 |
| 20260507061541 | 63 | 144 | 3.0 | 10.0 | 0.00 | 0.00 | 0.00 | 100 | 1010.4 |
| 20260507060044 | 62 | 171 | 3.0 | 9.0 | 0.00 | 0.00 | 0.00 | 100 | 1010.4 |
| 20260507054539 | 61 | 140 | 6.0 | 10.0 | 0.00 | 0.00 | 0.00 | 100 | 1010.5 |
| 20260507053030 | 60 | 150 | 3.0 | 8.0 | 0.00 | 0.00 | 0.00 | 100 | 1010.4 |
| 20260507051528 | 59 | 122 | 5.0 | 9.0 | 0.00 | 0.00 | 0.00 | 100 | 1010.5 |
| 20260507050046 | 58 | 119 | 4.0 | 9.0 | 0.00 | 0.00 | 0.00 | 100 | 1010.4 |
| 20260507044522 | 57 | 360 | 4.0 | 8.0 | 0.00 | 0.00 | 0.00 | 100 | 1010.4 |
| 20260507043013 | 56 | 360 | 4.0 | 9.0 | 0.00 | 0.00 | 0.00 | 100 | 1010.3 |
| 20260507041511 | 55 | 360 | 4.0 | 8.0 | 0.00 | 0.00 | 0.00 | 100 | 1010.3 |
| 20260507040004 | 54 | 360 | 4.0 | 6.0 | 0.00 | 0.00 | 0.00 | 100 | 1010.3 |
| 20260507034607 | 53 | 360 | 2.0 | 5.0 | 0.00 | 0.00 | 0.00 | 100 | 1010.1 |
| 20260507033058 | 52 | 360 | 2.0 | 4.0 | 0.00 | 0.00 | 0.00 | 100 | 1010.1 |
| 20260507031555 | 52 | 360 | 2.0 | 4.0 | 0.00 | 0.00 | 0.00 | 100 | 1010.1 |
| 20260507030051 | 52 | 360 | 2.0 | 4.0 | 0.00 | 0.00 | 0.00 | 100 | 1010.0 |
| 20260507024549 | 52 | 360 | 2.0 | 4.0 | 0.00 | 0.00 | 0.00 | 100 | 1009.9 |
| 20260507023045 | 52 | 360 | 3.0 | 6.0 | 0.00 | 0.00 | 0.00 | 100 | 1009.8 |
| 20260507021555 | 53 | 360 | 2.0 | 5.0 | 0.00 | 0.00 | 0.00 | 100 | 1009.8 |
| 20260507020043 | 53 | 360 | 2.0 | 5.0 | 0.00 | 0.00 | 0.00 | 100 | 1009.7 |
| 20260507014540 | 53 | 360 | 2.0 | 4.0 | 0.00 | 0.00 | 0.00 | 100 | 1009.7 |
| 20260507013038 | 54 | 360 | 2.0 | 4.0 | 0.00 | 0.00 | 0.00 | 100 | 1009.6 |
| 20260507011539 | 54 | 360 | 2.0 | 4.0 | 0.00 | 0.00 | 0.00 | 100 | 1009.5 |
| 20260507010042 | 54 | 360 | 2.0 | 5.0 | 0.00 | 0.00 | 0.00 | 100 | 1009.4 |
| 20260507004534 | 55 | 360 | 2.0 | 5.0 | 0.00 | 0.00 | 0.00 | 100 | 1009.5 |
| 20260507003032 | 54 | 360 | 2.0 | 4.0 | 0.00 | 0.00 | 0.00 | 100 | 1009.4 |
| 20260507001534 | 55 | 360 | 1.0 | 3.0 | 0.00 | 0.00 | 0.00 | 100 | 1009.3 |
| 20260507000034 | 55 | 360 | 1.0 | 3.0 | 0.00 | 0.00 | 0.00 | 100 | 1009.2 |
| 20260506234529 | 55 | 360 | 0.0 | 2.0 | 0.00 | 0.00 | 0.00 | 100 | 1009.2 |
| 20260506233027 | 55 | 360 | 1.0 | 3.0 | 0.00 | 0.00 | 0.00 | 100 | 1009.2 |
| 20260506231528 | 55 | 360 | 0.0 | 1.0 | 0.00 | 0.00 | 0.00 | 100 | 1009.2 |
| 20260506230024 | 55 | 360 | 1.0 | 2.0 | 0.00 | 0.00 | 0.00 | 100 | 1008.9 |
| 20260506224521 | 56 | 360 | 0.0 | 1.0 | 0.00 | 0.00 | 0.00 | 100 | 1008.9 |
| 20260506223018 | 57 | 360 | 0.0 | 2.0 | 0.00 | 0.00 | 0.00 | 100 | 1008.8 |
| 20260506221516 | 57 | 360 | 2.0 | 4.0 | 0.00 | 0.00 | 0.00 | 100 | 1008.7 |
| 20260506220023 | 57 | 360 | 0.0 | 2.0 | 0.00 | 0.00 | 0.00 | 100 | 1008.6 |
| 20260506214511 | 58 | 360 | 0.0 | 1.0 | 0.00 | 0.00 | 0.00 | 100 | 1008.6 |
| 20260506213006 | 60 | 360 | 0.0 | 2.0 | 0.00 | 0.00 | 0.00 | 100 | 1008.5 |
| 20260506211502 | 61 | 360 | 2.0 | 5.0 | 0.00 | 0.00 | 0.00 | 100 | 1008.3 |
| 20260506204602 | 63 | 360 | 2.0 | 5.0 | 0.00 | 0.00 | 0.00 | 100 | 1008.2 |
| 20260506203058 | 63 | 360 | 3.0 | 6.0 | 0.00 | 0.00 | 0.00 | 100 | 1008.0 |
| 20260506201558 | 64 | 360 | 3.0 | 6.0 | 0.00 | 0.00 | 0.00 | 100 | 1007.9 |
| 20260506200112 | 65 | 360 | 3.0 | 5.0 | 0.00 | 0.00 | 0.00 | 100 | 1007.9 |
| 20260506194614 | 67 | 360 | 3.0 | 9.0 | 0.00 | 0.00 | 0.00 | 100 | 1007.9 |
| 20260506193055 | 68 | 360 | 4.0 | 9.0 | 0.00 | 0.00 | 0.00 | 100 | 1007.9 |
| 20260506191554 | 68 | 360 | 4.0 | 9.0 | 0.00 | 0.00 | 0.00 | 100 | 1007.8 |
| 20260506190054 | 69 | 360 | 5.0 | 11.0 | 0.00 | 0.00 | 0.00 | 100 | 1007.7 |
| 20260506184559 | 69 | 360 | 3.0 | 9.0 | 0.00 | 0.00 | 0.00 | 100 | 1007.5 |
| 20260506183102 | 70 | 360 | 4.0 | 8.0 | 0.00 | 0.00 | 0.00 | 100 | 1007.4 |
| 20260506181559 | 70 | 360 | 5.0 | 10.0 | 0.00 | 0.00 | 0.00 | 100 | 1007.3 |
| 20260506180052 | 71 | 360 | 3.0 | 8.0 | 0.00 | 0.00 | 0.00 | 99 | 1007.2 |
| 20260506174551 | 72 | 360 | 3.0 | 6.0 | 0.00 | 0.00 | 0.00 | 96 | 1006.9 |
| 20260506173055 | 73 | 360 | 2.0 | 7.0 | 0.00 | 0.00 | 0.00 | 94 | 1006.7 |
| 20260506171550 | 75 | 133 | 3.0 | 9.0 | 0.00 | 0.00 | 0.00 | 93 | 1006.5 |
| 20260506170050 | 76 | 144 | 4.0 | 10.0 | 0.00 | 0.00 | 0.00 | 92 | 1006.5 |
| 20260506164552 | 77 | 161 | 4.0 | 12.0 | 0.00 | 0.00 | 0.00 | 92 | 1006.5 |
| 20260506163051 | 78 | 185 | 4.0 | 12.0 | 0.00 | 0.00 | 0.00 | 91 | 1006.5 |
| 20260506161556 | 78 | 178 | 7.0 | 12.0 | 0.00 | 0.00 | 0.00 | 90 | 1006.4 |
| 20260506160047 | 79 | 194 | 5.0 | 13.0 | 0.00 | 0.00 | 0.00 | 89 | 1006.4 |
| 20260506154546 | 80 | 161 | 4.0 | 15.0 | 0.00 | 0.00 | 0.00 | 89 | 1006.5 |
| 20260506153044 | 80 | 167 | 4.0 | 16.0 | 0.00 | 0.00 | 0.00 | 90 | 1006.4 |